Terminal Aerodrome Forecast
Issued by NWS Grand Forks, ND

Home | Current Version | Previous Version | Text Only | Print | Product List | Glossary Off
Versions: 1 2 3 4 5 6 7 8 9 10 11 12 13 14 15 16 17 18 19

000
FTUS43 KFGF 222300
TAFFAR
TAF
KFAR 222326Z 2300/2324 16009KT P6SM SKC
     FM230100 17010KT 5SM BR BKN008
      TEMPO 2301/2305 2SM BR BKN004
     FM231200 22010KT P6SM BKN090
     FM232100 32015G22KT P6SM BKN015=

USA.gov is the U.S. government's official web portal to all federal, state and local government web resources and services.